sensor_id;sensor_type;location;lat;lon;timestamp;pressure;altitude;pressure_sealevel;temperature;humidity
6423;BME280;3244;42.708;23.288;2023-07-13T02:49:00;145607.47;;;-59.87;87.92
6423;BME280;3244;42.708;23.288;2023-07-13T08:31:59;95295.34;;;51.56;nan
6423;BME280;3244;42.708;23.288;2023-07-13T08:34:26;95292.00;;;51.23;nan
6423;BME280;3244;42.708;23.288;2023-07-13T08:36:53;95281.56;;;51.30;nan
6423;BME280;3244;42.708;23.288;2023-07-13T08:39:19;95273.72;;;52.14;nan
6423;BME280;3244;42.708;23.288;2023-07-13T08:41:50;95289.88;;;51.20;nan
6423;BME280;3244;42.708;23.288;2023-07-13T08:46:54;95293.56;;;50.83;nan
6423;BME280;3244;42.708;23.288;2023-07-13T08:49:23;95288.75;;;51.62;nan
6423;BME280;3244;42.708;23.288;2023-07-13T08:51:53;95287.56;;;51.13;nan
6423;BME280;3244;42.708;23.288;2023-07-13T08:54:28;95296.94;;;50.61;nan
6423;BME280;3244;42.708;23.288;2023-07-13T08:56:56;95304.63;;;51.00;nan
6423;BME280;3244;42.708;23.288;2023-07-13T08:59:25;95303.22;;;51.02;nan
6423;BME280;3244;42.708;23.288;2023-07-13T09:02:03;95304.44;;;51.38;nan
6423;BME280;3244;42.708;23.288;2023-07-13T09:04:35;95312.56;;;51.87;nan
6423;BME280;3244;42.708;23.288;2023-07-13T09:07:06;95304.53;;;51.82;nan
6423;BME280;3244;42.708;23.288;2023-07-13T09:09:47;95305.44;;;51.28;nan
6423;BME280;3244;42.708;23.288;2023-07-13T09:12:22;95312.84;;;51.36;nan
6423;BME280;3244;42.708;23.288;2023-07-13T09:14:53;95309.94;;;51.05;nan
6423;BME280;3244;42.708;23.288;2023-07-13T09:17:25;95306.13;;;51.20;nan
6423;BME280;3244;42.708;23.288;2023-07-13T09:19:57;95317.78;;;50.93;nan
6423;BME280;3244;42.708;23.288;2023-07-13T09:22:26;95314.69;;;50.67;nan
6423;BME280;3244;42.708;23.288;2023-07-13T09:24:59;95312.75;;;50.02;nan
6423;BME280;3244;42.708;23.288;2023-07-13T09:27:31;95312.03;;;49.54;nan
6423;BME280;3244;42.708;23.288;2023-07-13T09:30:31;95317.38;;;48.93;nan
6423;BME280;3244;42.708;23.288;2023-07-13T09:33:01;95315.59;;;48.20;nan
6423;BME280;3244;42.708;23.288;2023-07-13T09:35:29;95302.00;;;47.37;nan
6423;BME280;3244;42.708;23.288;2023-07-13T09:38:04;95295.25;;;46.50;nan
6423;BME280;3244;42.708;23.288;2023-07-13T09:40:45;95310.00;;;45.19;nan
6423;BME280;3244;42.708;23.288;2023-07-13T09:43:16;95295.19;;;44.32;nan
6423;BME280;3244;42.708;23.288;2023-07-13T09:45:45;95298.97;;;43.50;nan
6423;BME280;3244;42.708;23.288;2023-07-13T09:48:16;95295.75;;;42.88;nan
6423;BME280;3244;42.708;23.288;2023-07-13T09:55:41;95277.66;;;39.62;nan
6423;BME280;3244;42.708;23.288;2023-07-13T10:00:38;95286.44;;;37.78;nan
6423;BME280;3244;42.708;23.288;2023-07-13T10:23:15;95287.88;;;34.50;nan
6423;BME280;3244;42.708;23.288;2023-07-13T10:25:48;95280.97;;;34.49;nan
6423;BME280;3244;42.708;23.288;2023-07-13T10:28:27;95266.91;;;34.41;nan
6423;BME280;3244;42.708;23.288;2023-07-13T12:07:19;95203.22;;;33.67;nan
6423;BME280;3244;42.708;23.288;2023-07-13T12:41:51;95122.81;;;34.06;nan
6423;BME280;3244;42.708;23.288;2023-07-13T13:06:40;95098.06;;;34.07;nan
6423;BME280;3244;42.708;23.288;2023-07-13T13:46:13;95050.81;;;33.77;nan
6423;BME280;3244;42.708;23.288;2023-07-13T15:57:00;95040.47;;;32.56;nan
6423;BME280;3244;42.708;23.288;2023-07-13T17:18:21;94972.50;;;30.54;nan
